createdAt,value
2023-03-17T00:01:13.015Z,2.70
2023-03-17T00:06:29.873Z,2.70
2023-03-17T00:11:31.385Z,2.68
2023-03-17T00:16:37.454Z,2.65
2023-03-17T00:21:42.406Z,2.69
2023-03-17T00:26:44.405Z,2.64
2023-03-17T00:31:49.354Z,2.59
2023-03-17T00:36:51.535Z,2.65
2023-03-17T00:41:53.349Z,2.68
2023-03-17T00:46:55.015Z,2.73
2023-03-17T00:51:56.632Z,2.81
2023-03-17T00:56:58.446Z,2.77
2023-03-17T01:02:00.343Z,2.87
2023-03-17T01:07:04.959Z,2.98
2023-03-17T01:12:07.946Z,3.09
2023-03-17T01:17:16.687Z,3.22
2023-03-17T01:22:18.287Z,3.26
2023-03-17T01:27:19.844Z,3.23
2023-03-17T01:32:24.356Z,3.20
2023-03-17T01:37:27.000Z,3.09
2023-03-17T01:42:29.283Z,3.03
2023-03-17T01:47:31.943Z,3.01
2023-03-17T01:52:36.648Z,2.94
2023-03-17T01:57:53.516Z,2.84
2023-03-17T02:02:56.575Z,2.73
2023-03-17T02:07:58.679Z,2.69
2023-03-17T02:13:05.811Z,2.67
2023-03-17T02:18:09.444Z,2.65
2023-03-17T02:23:11.776Z,2.61
2023-03-17T02:28:23.463Z,2.66
2023-03-17T02:33:25.304Z,2.64
2023-03-17T02:38:29.664Z,2.56
2023-03-17T02:43:34.354Z,2.44
2023-03-17T02:48:36.746Z,2.28
2023-03-17T02:53:38.281Z,2.12
2023-03-17T02:58:39.768Z,1.94
2023-03-17T03:03:41.372Z,1.81
2023-03-17T03:08:42.959Z,1.75
2023-03-17T03:13:44.919Z,1.61
2023-03-17T03:18:46.474Z,1.48
2023-03-17T03:23:48.124Z,1.44
2023-03-17T03:28:51.177Z,1.38
2023-03-17T03:33:52.867Z,1.30
2023-03-17T03:38:54.391Z,1.16
2023-03-17T03:43:56.040Z,1.00
2023-03-17T03:48:57.528Z,0.87
2023-03-17T03:53:59.096Z,0.87
2023-03-17T03:59:01.171Z,0.75
2023-03-17T04:04:02.698Z,0.66
2023-03-17T04:09:04.342Z,0.53
2023-03-17T04:14:06.459Z,0.42
2023-03-17T04:19:09.045Z,0.36
2023-03-17T04:24:10.632Z,0.31
2023-03-17T04:29:15.607Z,0.25
2023-03-17T04:34:18.712Z,0.23
2023-03-17T04:39:20.224Z,0.17
2023-03-17T04:44:21.779Z,0.14
2023-03-17T04:49:23.353Z,0.03
2023-03-17T04:54:25.190Z,0.00
2023-03-17T04:59:27.331Z,0.02
2023-03-17T05:04:31.991Z,0.06
2023-03-17T05:09:34.033Z,0.09
2023-03-17T05:14:36.263Z,0.11
2023-03-17T05:19:37.762Z,0.10
2023-03-17T05:24:39.239Z,0.08
2023-03-17T05:29:40.795Z,0.02
2023-03-17T05:34:42.395Z,-0.07
2023-03-17T05:39:43.926Z,-0.11
2023-03-17T05:44:45.413Z,-0.08
2023-03-17T05:49:46.911Z,-0.06
2023-03-17T05:54:49.072Z,-0.04
2023-03-17T05:59:54.383Z,-0.03
2023-03-17T06:04:55.884Z,0.05
2023-03-17T06:09:57.397Z,0.18
2023-03-17T06:14:58.922Z,0.27
2023-03-17T06:20:00.420Z,0.34
2023-03-17T06:25:02.020Z,0.47
2023-03-17T06:30:05.819Z,0.66
2023-03-17T06:35:07.705Z,0.93
2023-03-17T06:40:10.182Z,1.30
2023-03-17T06:45:12.394Z,1.69
2023-03-17T06:50:14.096Z,2.04
2023-03-17T06:55:15.860Z,2.34
2023-03-17T07:00:18.063Z,2.73
2023-03-17T07:05:19.622Z,3.16
2023-03-17T07:10:23.124Z,3.53
2023-03-17T07:15:24.746Z,3.82
2023-03-17T07:20:26.491Z,4.20
2023-03-17T07:25:28.306Z,4.41
2023-03-17T07:30:29.886Z,4.69
2023-03-17T07:35:33.714Z,5.06
2023-03-17T07:40:36.469Z,5.64
2023-03-17T07:45:38.192Z,6.19
2023-03-17T07:50:40.149Z,6.76
2023-03-17T07:55:42.567Z,7.08
2023-03-17T08:00:48.959Z,7.46
2023-03-17T08:05:58.001Z,7.57
2023-03-17T08:11:04.841Z,7.83
2023-03-17T08:16:07.362Z,8.13
2023-03-17T08:21:09.707Z,8.26
2023-03-17T08:26:11.375Z,8.47
2023-03-17T08:31:21.596Z,8.68
2023-03-17T08:36:24.136Z,9.01
2023-03-17T08:41:28.148Z,9.27
2023-03-17T08:46:32.517Z,9.51
2023-03-17T08:51:36.770Z,9.80
2023-03-17T08:56:40.164Z,10.05
2023-03-17T09:01:42.075Z,10.22
2023-03-17T09:07:01.371Z,10.60
2023-03-17T09:12:06.341Z,10.72
2023-03-17T09:17:08.508Z,11.14
2023-03-17T09:22:15.230Z,11.65
2023-03-17T09:27:16.821Z,11.90
2023-03-17T09:32:21.117Z,12.42
2023-03-17T09:37:22.657Z,12.75
2023-03-17T09:42:40.583Z,12.75
2023-03-17T09:48:17.317Z,12.69
2023-03-17T09:53:22.997Z,12.50
2023-03-17T09:58:35.859Z,12.49
2023-03-17T10:03:37.569Z,12.58
2023-03-17T10:08:45.173Z,12.66
2023-03-17T10:13:57.819Z,12.76
2023-03-17T10:19:07.163Z,13.03
2023-03-17T10:24:10.757Z,13.37
2023-03-17T10:29:18.819Z,13.75
2023-03-17T10:34:32.695Z,14.05
2023-03-17T10:39:47.060Z,14.46
2023-03-17T10:44:53.963Z,14.82
2023-03-17T10:49:57.968Z,15.02
2023-03-17T10:55:05.568Z,14.88
2023-03-17T11:00:20.192Z,14.81
2023-03-17T11:05:24.821Z,14.98
2023-03-17T11:10:29.229Z,15.38
2023-03-17T11:15:37.849Z,15.66
2023-03-17T11:21:06.724Z,15.77
2023-03-17T11:26:21.287Z,16.26
2023-03-17T11:31:27.423Z,16.76
2023-03-17T11:36:57.826Z,16.69
2023-03-17T11:42:29.181Z,16.82
2023-03-17T11:47:52.267Z,17.23
2023-03-17T11:53:12.211Z,17.55
2023-03-17T11:58:24.964Z,17.93
2023-03-17T12:03:45.962Z,18.31
2023-03-17T12:09:01.899Z,18.60
2023-03-17T12:14:30.318Z,18.67
2023-03-17T12:19:51.114Z,18.47
2023-03-17T12:25:25.577Z,18.42
2023-03-17T12:30:54.406Z,18.59
2023-03-17T12:36:45.778Z,18.52
2023-03-17T12:42:08.895Z,18.41
2023-03-17T12:47:13.134Z,18.45
2023-03-17T12:52:26.692Z,18.67
2023-03-17T12:57:31.011Z,18.48
2023-03-17T13:02:38.017Z,18.54
2023-03-17T13:07:51.144Z,18.27
2023-03-17T13:13:05.781Z,18.49
2023-03-17T13:18:23.477Z,18.47
2023-03-17T13:23:44.323Z,18.58
2023-03-17T13:28:49.180Z,19.06
2023-03-17T13:33:56.871Z,18.80
2023-03-17T13:39:36.480Z,18.74
2023-03-17T13:44:56.949Z,19.10
2023-03-17T13:50:06.456Z,19.07
2023-03-17T13:55:20.473Z,19.06
2023-03-17T14:00:26.668Z,19.02
2023-03-17T14:05:31.322Z,19.31
2023-03-17T14:10:33.969Z,19.17
2023-03-17T14:15:48.495Z,19.14
2023-03-17T14:21:02.046Z,19.44
2023-03-17T14:26:03.993Z,19.61
2023-03-17T14:31:07.511Z,19.46
2023-03-17T14:36:14.258Z,19.32
2023-03-17T14:41:18.188Z,19.27
2023-03-17T14:46:30.656Z,18.87
2023-03-17T14:51:37.885Z,18.47
2023-03-17T14:57:00.027Z,18.30
2023-03-17T15:02:15.788Z,18.28
2023-03-17T15:07:35.837Z,18.05
2023-03-17T15:12:37.468Z,17.84
2023-03-17T15:17:39.044Z,17.48
2023-03-17T15:22:55.630Z,17.17
2023-03-17T15:27:57.732Z,17.02
2023-03-17T15:33:03.099Z,16.94
2023-03-17T15:38:05.923Z,16.83
2023-03-17T15:43:07.439Z,16.79
2023-03-17T15:48:29.787Z,16.71
2023-03-17T15:53:33.681Z,16.55
2023-03-17T15:58:35.189Z,16.33
2023-03-17T16:03:41.229Z,16.18
2023-03-17T16:08:42.898Z,16.09
2023-03-17T16:13:45.155Z,16.01
2023-03-17T16:18:47.596Z,15.86
2023-03-17T16:23:49.756Z,15.67
2023-03-17T16:28:51.419Z,15.52
2023-03-17T16:33:54.165Z,15.40
2023-03-17T16:38:55.769Z,15.23
2023-03-17T16:44:02.047Z,15.03
2023-03-17T16:49:04.909Z,14.83
2023-03-17T16:54:06.418Z,14.67
2023-03-17T16:59:14.872Z,14.49
2023-03-17T17:04:16.365Z,14.33
2023-03-17T17:09:18.066Z,14.06
2023-03-17T17:14:19.545Z,13.74
2023-03-17T17:19:21.942Z,13.52
2023-03-17T17:24:23.478Z,13.37
2023-03-17T17:29:24.959Z,13.14
2023-03-17T17:34:26.458Z,12.85
2023-03-17T17:39:27.994Z,12.65
2023-03-17T17:44:30.959Z,12.39
2023-03-17T17:49:32.591Z,12.27
2023-03-17T17:54:34.100Z,12.14
2023-03-17T17:59:37.804Z,12.04
2023-03-17T18:04:39.768Z,11.81
2023-03-17T18:09:41.307Z,11.74
2023-03-17T18:14:42.786Z,11.60
2023-03-17T18:19:44.285Z,11.46
2023-03-17T18:24:46.497Z,11.47
2023-03-17T18:29:48.469Z,11.44
2023-03-17T18:34:50.292Z,11.34
2023-03-17T18:40:11.654Z,11.20
2023-03-17T18:45:14.007Z,11.01
2023-03-17T18:50:17.512Z,10.85
2023-03-17T18:55:19.042Z,10.72
2023-03-17T19:00:21.151Z,10.69
2023-03-17T19:05:22.968Z,10.61
2023-03-17T19:10:24.464Z,10.43
2023-03-17T19:15:26.644Z,10.30
2023-03-17T19:20:28.258Z,10.21
2023-03-17T19:25:29.932Z,10.06
2023-03-17T19:30:31.737Z,9.97
2023-03-17T19:35:33.501Z,9.85
2023-03-17T19:40:37.017Z,9.79
2023-03-17T19:45:38.536Z,9.80
2023-03-17T19:50:40.739Z,9.77
2023-03-17T19:55:43.553Z,9.65
2023-03-17T20:00:45.237Z,9.60
2023-03-17T20:05:46.745Z,9.57
2023-03-17T20:10:53.801Z,9.48
2023-03-17T20:15:55.480Z,9.37
2023-03-17T20:20:58.639Z,9.36
2023-03-17T20:26:01.307Z,9.37
2023-03-17T20:31:04.539Z,9.34
2023-03-17T20:36:06.660Z,9.34
2023-03-17T20:41:13.678Z,9.34
2023-03-17T20:46:18.105Z,9.18
2023-03-17T20:51:19.948Z,9.06
2023-03-17T20:56:24.207Z,9.00
2023-03-17T21:01:26.648Z,8.94
2023-03-17T21:06:31.386Z,8.85
2023-03-17T21:11:33.539Z,8.81
2023-03-17T21:16:36.376Z,8.77
2023-03-17T21:21:40.097Z,8.66
2023-03-17T21:26:41.621Z,8.52
2023-03-17T21:31:43.134Z,8.43
2023-03-17T21:36:44.887Z,8.33
2023-03-17T21:41:49.151Z,8.29
2023-03-17T21:46:50.930Z,8.29
2023-03-17T21:51:52.717Z,8.34
2023-03-17T21:56:54.230Z,8.34
2023-03-17T22:01:55.723Z,8.32
2023-03-17T22:06:58.835Z,8.25
2023-03-17T22:12:00.430Z,8.09
2023-03-17T22:17:05.268Z,8.13
2023-03-17T22:22:06.813Z,8.17
2023-03-17T22:27:08.416Z,8.25
2023-03-17T22:32:10.523Z,8.23
2023-03-17T22:37:12.063Z,8.22
2023-03-17T22:42:13.728Z,8.21
2023-03-17T22:47:15.217Z,8.22
2023-03-17T22:52:16.727Z,8.22
2023-03-17T22:57:18.206Z,8.24
2023-03-17T23:02:19.870Z,8.31
2023-03-17T23:07:21.372Z,8.32
2023-03-17T23:12:24.497Z,8.26
2023-03-17T23:17:26.623Z,8.21
2023-03-17T23:22:28.257Z,8.13
2023-03-17T23:27:29.964Z,8.05
2023-03-17T23:32:31.906Z,8.00
2023-03-17T23:37:33.496Z,7.98
2023-03-17T23:42:35.637Z,7.96
2023-03-17T23:47:38.240Z,7.94
2023-03-17T23:52:40.948Z,7.91
2023-03-17T23:57:44.204Z,7.90
